createdAt,value
2019-03-17T00:01:27.045Z,6.05
2019-03-17T00:06:32.591Z,5.95
2019-03-17T00:11:38.147Z,5.88
2019-03-17T00:16:43.667Z,5.74
2019-03-17T00:21:50.460Z,5.82
2019-03-17T00:26:55.926Z,6.02
2019-03-17T00:32:01.587Z,5.97
2019-03-17T00:37:07.264Z,5.90
2019-03-17T00:42:12.735Z,5.94
2019-03-17T00:47:18.254Z,5.81
2019-03-17T00:52:23.954Z,5.62
2019-03-17T00:57:30.340Z,5.49
2019-03-17T01:02:35.770Z,5.38
2019-03-17T01:07:41.317Z,5.56
2019-03-17T01:12:46.783Z,5.77
2019-03-17T01:17:52.227Z,5.86
2019-03-17T01:22:57.782Z,5.72
2019-03-17T01:28:01.139Z,5.58
2019-03-17T01:33:06.701Z,5.66
2019-03-17T01:38:12.141Z,5.65
2019-03-17T01:43:17.562Z,5.69
2019-03-17T01:48:22.984Z,5.78
2019-03-17T01:53:28.437Z,5.88
2019-03-17T01:58:33.888Z,6.11
2019-03-17T02:03:39.409Z,6.15
2019-03-17T02:08:44.852Z,5.99
2019-03-17T02:13:50.360Z,6.08
2019-03-17T02:18:56.007Z,6.08
2019-03-17T02:24:01.528Z,4.73
2019-03-17T02:29:07.157Z,4.11
2019-03-17T02:34:12.653Z,3.93
2019-03-17T02:39:18.333Z,4.14
2019-03-17T02:44:23.676Z,4.54
2019-03-17T02:49:29.031Z,4.82
2019-03-17T02:54:34.550Z,4.91
2019-03-17T02:59:39.957Z,5.02
2019-03-17T03:04:45.364Z,4.97
2019-03-17T03:09:50.843Z,4.85
2019-03-17T03:14:56.306Z,4.79
2019-03-17T03:20:01.801Z,4.61
2019-03-17T03:25:07.612Z,4.37
2019-03-17T03:30:13.338Z,4.30
2019-03-17T03:35:18.881Z,4.36
2019-03-17T03:40:24.281Z,4.57
2019-03-17T03:45:29.673Z,4.86
2019-03-17T03:50:35.281Z,4.72
2019-03-17T03:55:42.363Z,4.49
2019-03-17T04:00:48.058Z,4.31
2019-03-17T04:05:53.716Z,4.01
2019-03-17T04:10:59.115Z,3.82
2019-03-17T04:16:04.481Z,3.73
2019-03-17T04:21:09.985Z,3.82
2019-03-17T04:26:15.555Z,3.91
2019-03-17T04:31:21.106Z,4.01
2019-03-17T04:36:39.516Z,4.20
2019-03-17T04:41:33.685Z,4.28
2019-03-17T04:46:39.167Z,4.39
2019-03-17T04:51:44.512Z,4.67
2019-03-17T04:56:49.946Z,4.68
2019-03-17T05:01:55.425Z,4.71
2019-03-17T05:07:00.935Z,4.81
2019-03-17T05:12:06.596Z,4.87
2019-03-17T05:17:12.089Z,4.86
2019-03-17T05:22:17.605Z,4.82
2019-03-17T05:27:23.293Z,4.70
2019-03-17T05:32:28.719Z,4.53
2019-03-17T05:37:34.146Z,4.37
2019-03-17T05:42:40.909Z,4.37
2019-03-17T05:47:46.574Z,4.48
2019-03-17T05:52:52.000Z,4.64
2019-03-17T05:57:57.504Z,4.69
2019-03-17T06:03:03.021Z,4.65
2019-03-17T06:08:08.486Z,4.61
2019-03-17T06:13:13.869Z,4.73
2019-03-17T06:18:19.420Z,5.00
2019-03-17T06:23:24.913Z,5.18
2019-03-17T06:28:30.314Z,5.28
2019-03-17T06:33:35.761Z,5.36
2019-03-17T06:38:41.209Z,5.27
2019-03-17T06:43:46.593Z,5.41
2019-03-17T06:48:52.133Z,5.51
2019-03-17T06:53:57.665Z,5.42
2019-03-17T06:59:03.096Z,5.48
2019-03-17T07:04:08.520Z,5.47
2019-03-17T07:09:14.029Z,5.53
2019-03-17T07:14:19.509Z,5.66
2019-03-17T07:19:24.957Z,5.86
2019-03-17T07:24:30.424Z,6.12
2019-03-17T07:29:35.920Z,5.99
2019-03-17T07:34:41.444Z,5.94
2019-03-17T07:39:46.919Z,5.77
2019-03-17T07:44:52.290Z,5.54
2019-03-17T07:49:57.792Z,5.30
2019-03-17T07:55:03.216Z,5.15
2019-03-17T08:00:09.666Z,5.37
2019-03-17T08:05:15.296Z,6.23
2019-03-17T08:10:20.824Z,7.59
2019-03-17T08:15:26.339Z,6.12
2019-03-17T08:20:31.804Z,5.19
2019-03-17T08:25:37.217Z,5.08
2019-03-17T08:30:52.384Z,5.34
2019-03-17T08:35:50.187Z,5.63
2019-03-17T08:40:55.829Z,5.75
2019-03-17T08:46:01.247Z,5.59
2019-03-17T08:51:06.972Z,5.28
2019-03-17T08:56:12.389Z,5.18
2019-03-17T09:01:17.834Z,4.95
2019-03-17T09:06:23.754Z,4.91
2019-03-17T09:11:29.187Z,5.18
2019-03-17T09:16:34.641Z,5.44
2019-03-17T09:21:39.990Z,5.76
2019-03-17T09:26:45.363Z,6.61
2019-03-17T09:31:50.759Z,7.16
2019-03-17T09:36:56.253Z,8.02
2019-03-17T09:42:04.634Z,7.26
2019-03-17T09:47:10.040Z,6.27
2019-03-17T09:52:15.456Z,6.70
2019-03-17T09:57:20.970Z,5.63
2019-03-17T10:02:26.326Z,5.40
2019-03-17T10:07:31.793Z,5.83
2019-03-17T10:12:37.306Z,6.36
2019-03-17T10:17:42.875Z,7.21
2019-03-17T10:22:48.351Z,9.72
2019-03-17T10:27:54.000Z,8.59
2019-03-17T10:32:59.581Z,7.99
2019-03-17T10:38:05.065Z,8.25
2019-03-17T10:43:10.590Z,9.24
2019-03-17T10:48:19.938Z,11.03
2019-03-17T10:53:24.033Z,9.79
2019-03-17T10:58:29.564Z,9.79
2019-03-17T11:03:35.026Z,7.92
2019-03-17T11:08:40.448Z,7.25
2019-03-17T11:13:45.921Z,9.74
2019-03-17T11:18:51.471Z,11.49
2019-03-17T11:23:56.925Z,11.15
2019-03-17T11:29:02.534Z,11.81
2019-03-17T11:34:08.006Z,11.45
2019-03-17T11:39:13.471Z,11.57
2019-03-17T11:44:19.268Z,11.39
2019-03-17T11:49:24.922Z,12.51
2019-03-17T11:54:30.595Z,12.73
2019-03-17T11:59:36.327Z,11.58
2019-03-17T12:04:41.985Z,11.03
2019-03-17T12:09:50.321Z,10.97
2019-03-17T12:14:54.676Z,10.33
2019-03-17T12:20:00.376Z,10.83
2019-03-17T12:25:06.157Z,9.77
2019-03-17T12:30:20.144Z,10.17
2019-03-17T12:35:25.619Z,10.34
2019-03-17T12:40:31.233Z,10.99
2019-03-17T12:45:36.744Z,11.30
2019-03-17T12:50:42.343Z,13.14
2019-03-17T12:55:47.724Z,11.37
2019-03-17T13:00:53.311Z,11.63
2019-03-17T13:05:58.802Z,12.39
2019-03-17T13:11:04.274Z,13.29
2019-03-17T13:16:09.709Z,12.07
2019-03-17T13:21:15.157Z,13.32
2019-03-17T13:26:22.683Z,11.91
2019-03-17T13:31:28.121Z,13.05
2019-03-17T13:36:33.670Z,13.08
2019-03-17T13:41:39.204Z,13.73
2019-03-17T13:46:44.687Z,13.78
2019-03-17T13:51:50.308Z,13.72
2019-03-17T13:56:55.789Z,14.00
2019-03-17T14:02:01.394Z,14.22
2019-03-17T14:07:06.841Z,13.78
2019-03-17T14:12:12.289Z,13.78
2019-03-17T14:17:17.760Z,13.88
2019-03-17T14:22:24.003Z,13.62
2019-03-17T14:27:29.561Z,12.63
2019-03-17T14:32:35.219Z,13.22
2019-03-17T14:37:40.744Z,13.12
2019-03-17T14:42:46.642Z,12.76
2019-03-17T14:47:52.310Z,13.60
2019-03-17T14:53:00.614Z,12.68
2019-03-17T14:58:05.104Z,12.41
2019-03-17T15:03:10.570Z,12.37
2019-03-17T15:08:16.191Z,12.11
2019-03-17T15:13:21.856Z,12.77
2019-03-17T15:18:27.543Z,12.13
2019-03-17T15:23:32.997Z,11.79
2019-03-17T15:28:41.510Z,11.31
2019-03-17T15:33:47.217Z,11.95
2019-03-17T15:38:52.821Z,11.69
2019-03-17T15:43:58.411Z,11.15
2019-03-17T15:49:03.853Z,11.48
2019-03-17T15:54:09.536Z,11.24
2019-03-17T15:59:15.106Z,11.05
2019-03-17T16:04:20.631Z,10.87
2019-03-17T16:09:28.507Z,10.82
2019-03-17T16:14:33.270Z,10.70
2019-03-17T16:19:38.816Z,10.40
2019-03-17T16:24:44.514Z,9.93
2019-03-17T16:29:49.961Z,9.82
2019-03-17T16:34:55.397Z,9.58
2019-03-17T16:40:00.821Z,9.36
2019-03-17T16:45:07.399Z,9.55
2019-03-17T16:50:14.678Z,9.71
2019-03-17T16:55:20.347Z,9.72
2019-03-17T17:00:26.546Z,9.63
2019-03-17T17:05:34.905Z,9.45
2019-03-17T17:10:39.333Z,9.24
2019-03-17T17:15:44.954Z,9.26
2019-03-17T17:20:50.526Z,9.22
2019-03-17T17:25:55.959Z,9.19
2019-03-17T17:31:01.452Z,9.10
2019-03-17T17:36:06.959Z,9.29
2019-03-17T17:41:12.507Z,9.49
2019-03-17T17:46:17.937Z,9.61
2019-03-17T17:51:23.475Z,9.36
2019-03-17T17:56:29.040Z,8.88
2019-03-17T18:01:34.532Z,8.83
2019-03-17T18:06:40.087Z,8.67
2019-03-17T18:11:45.532Z,8.50
2019-03-17T18:16:51.052Z,8.54
2019-03-17T18:21:56.601Z,8.56
2019-03-17T18:27:02.319Z,8.62
2019-03-17T18:32:07.961Z,8.73
2019-03-17T18:37:16.002Z,8.78
2019-03-17T18:42:32.611Z,8.69
2019-03-17T18:47:28.782Z,8.69
2019-03-17T18:52:34.499Z,8.49
2019-03-17T18:57:42.073Z,8.27
2019-03-17T19:02:47.346Z,8.08
2019-03-17T19:07:52.886Z,8.18
2019-03-17T19:12:58.393Z,8.14
2019-03-17T19:18:03.961Z,8.20
2019-03-17T19:23:09.697Z,8.39
2019-03-17T19:28:15.321Z,8.43
2019-03-17T19:33:20.879Z,8.20
2019-03-17T19:38:26.490Z,8.24
2019-03-17T19:43:32.145Z,8.42
2019-03-17T19:48:37.702Z,8.54
2019-03-17T19:53:43.271Z,8.60
2019-03-17T19:58:48.741Z,8.60
2019-03-17T20:03:54.164Z,8.68
2019-03-17T20:08:59.859Z,8.42
2019-03-17T20:14:07.181Z,8.05
2019-03-17T20:19:12.798Z,8.18
2019-03-17T20:24:18.393Z,8.17
2019-03-17T20:29:25.021Z,8.08
2019-03-17T20:34:30.767Z,8.08
2019-03-17T20:39:36.360Z,8.06
2019-03-17T20:44:42.100Z,7.97
2019-03-17T20:49:47.819Z,8.04
2019-03-17T20:54:53.514Z,8.03
2019-03-17T20:59:59.180Z,8.00
2019-03-17T21:05:05.042Z,8.10
2019-03-17T21:10:11.460Z,8.11
2019-03-17T21:15:16.939Z,8.13
2019-03-17T21:20:22.521Z,8.21
2019-03-17T21:25:28.082Z,8.25
2019-03-17T21:30:33.601Z,8.27
2019-03-17T21:35:39.059Z,8.32
2019-03-17T21:41:01.691Z,8.36
2019-03-17T21:45:51.880Z,8.45
2019-03-17T21:50:57.378Z,8.32
2019-03-17T21:56:06.200Z,8.16
2019-03-17T22:01:12.041Z,7.84
2019-03-17T22:06:17.522Z,7.82
2019-03-17T22:11:23.310Z,7.81
2019-03-17T22:16:29.781Z,7.74
2019-03-17T22:21:35.299Z,7.72
2019-03-17T22:26:40.881Z,7.57
2019-03-17T22:31:46.664Z,7.55
2019-03-17T22:36:52.361Z,7.66
2019-03-17T22:41:58.024Z,7.90
2019-03-17T22:47:03.562Z,7.76
2019-03-17T22:52:09.206Z,7.64
2019-03-17T22:57:15.221Z,7.95
2019-03-17T23:02:23.779Z,8.12
2019-03-17T23:07:29.480Z,8.06
2019-03-17T23:12:35.272Z,7.96
2019-03-17T23:17:41.219Z,8.16
2019-03-17T23:22:46.827Z,8.31
2019-03-17T23:27:52.441Z,8.33
2019-03-17T23:32:57.980Z,8.44
2019-03-17T23:38:03.507Z,8.34
2019-03-17T23:43:09.082Z,8.11
2019-03-17T23:48:14.771Z,7.97
2019-03-17T23:53:20.221Z,7.79
2019-03-17T23:58:25.802Z,7.84
